Decoded Metar for LFSG (EPINAL in FRANCE) (IATA:EPL) | Meteo·Mobile Aviation Weather
aviador You're here:

LFSG Decoded Metar

EPINAL in FRANCE
Report Time2019-09-21 09:00:00
UTC Time2019-09-21 09:18:16
Flight Rules vfr VFR
WindVRB at 03 kt
Visibility9999 m
Phenomena:N/A
Clouds:N/A
Expected CloudBase > 4,800 ft AGL from Temp-Dew spread
CeilingNone
Temp17°C (ISA +4)
Dew Point05°C (45% RH)
AAT14.8°C
QNH1019 hPa
Density Alt1,493 ft
Elevation1,083 ft
Report Wrong Elevation
Raw Report
METAR LFSG 210900Z AUTO VRB03KT CAVOK 17/05 Q1019=

Extra information for LFSG:More info

Metar Taf Metar & Taf Last 4 Metars F.Rules Stats Wind Profile Meteogram Temp Stats Airport Information Weather charts Add Link Nearby VenuesMetar ALERT Operation Metar Decoded Social comments